sensor_id;sensor_type;location;lat;lon;timestamp;temperature;humidity
4056;DHT22;2043;52.184;8.690;2023-02-01T00:00:25;4.20;99.90
4056;DHT22;2043;52.184;8.690;2023-02-01T00:02:52;4.20;99.90
4056;DHT22;2043;52.184;8.690;2023-02-01T00:05:19;4.20;99.90
4056;DHT22;2043;52.184;8.690;2023-02-01T00:07:47;4.20;99.90
4056;DHT22;2043;52.184;8.690;2023-02-01T00:10:15;4.20;99.90
4056;DHT22;2043;52.184;8.690;2023-02-01T00:12:43;4.20;99.90
4056;DHT22;2043;52.184;8.690;2023-02-01T00:15:10;4.20;99.90
4056;DHT22;2043;52.184;8.690;2023-02-01T00:17:37;4.20;99.90
4056;DHT22;2043;52.184;8.690;2023-02-01T00:20:04;4.20;99.90
4056;DHT22;2043;52.184;8.690;2023-02-01T00:22:31;4.20;99.90
4056;DHT22;2043;52.184;8.690;2023-02-01T00:24:57;4.30;99.90
4056;DHT22;2043;52.184;8.690;2023-02-01T00:27:24;4.20;99.90
4056;DHT22;2043;52.184;8.690;2023-02-01T00:29:51;4.30;99.90
4056;DHT22;2043;52.184;8.690;2023-02-01T00:32:17;4.30;99.90
4056;DHT22;2043;52.184;8.690;2023-02-01T00:34:44;4.30;99.90
4056;DHT22;2043;52.184;8.690;2023-02-01T00:37:11;4.30;99.90
4056;DHT22;2043;52.184;8.690;2023-02-01T00:39:38;4.40;99.90
4056;DHT22;2043;52.184;8.690;2023-02-01T00:42:04;4.40;99.90
4056;DHT22;2043;52.184;8.690;2023-02-01T00:44:31;4.40;99.90
4056;DHT22;2043;52.184;8.690;2023-02-01T00:47:01;4.40;99.90
4056;DHT22;2043;52.184;8.690;2023-02-01T00:49:28;4.40;99.90
4056;DHT22;2043;52.184;8.690;2023-02-01T00:51:55;4.50;99.90
4056;DHT22;2043;52.184;8.690;2023-02-01T00:54:22;4.40;99.90
4056;DHT22;2043;52.184;8.690;2023-02-01T00:56:49;4.40;99.90
4056;DHT22;2043;52.184;8.690;2023-02-01T00:59:16;4.30;99.90
4056;DHT22;2043;52.184;8.690;2023-02-01T01:01:43;4.20;99.90
4056;DHT22;2043;52.184;8.690;2023-02-01T01:04:10;4.20;99.90
4056;DHT22;2043;52.184;8.690;2023-02-01T01:06:37;4.30;99.90
4056;DHT22;2043;52.184;8.690;2023-02-01T01:09:06;4.30;99.90
4056;DHT22;2043;52.184;8.690;2023-02-01T01:11:36;4.30;99.90
4056;DHT22;2043;52.184;8.690;2023-02-01T01:14:05;4.30;99.90
4056;DHT22;2043;52.184;8.690;2023-02-01T01:16:33;4.30;99.90
4056;DHT22;2043;52.184;8.690;2023-02-01T01:19:00;4.40;99.90
4056;DHT22;2043;52.184;8.690;2023-02-01T01:21:28;4.40;99.90
4056;DHT22;2043;52.184;8.690;2023-02-01T01:23:56;4.30;99.90
4056;DHT22;2043;52.184;8.690;2023-02-01T01:26:25;4.30;99.90
4056;DHT22;2043;52.184;8.690;2023-02-01T01:28:52;4.30;99.90
4056;DHT22;2043;52.184;8.690;2023-02-01T01:31:20;4.30;99.90
4056;DHT22;2043;52.184;8.690;2023-02-01T01:33:52;4.30;99.90
4056;DHT22;2043;52.184;8.690;2023-02-01T01:36:20;4.30;99.90
4056;DHT22;2043;52.184;8.690;2023-02-01T01:38:47;4.30;99.90
4056;DHT22;2043;52.184;8.690;2023-02-01T01:41:20;4.30;99.90
4056;DHT22;2043;52.184;8.690;2023-02-01T01:46:39;4.30;99.90
4056;DHT22;2043;52.184;8.690;2023-02-01T01:49:11;4.20;99.90
4056;DHT22;2043;52.184;8.690;2023-02-01T01:51:58;4.30;99.90
4056;DHT22;2043;52.184;8.690;2023-02-01T01:54:37;4.30;99.90
4056;DHT22;2043;52.184;8.690;2023-02-01T01:57:09;4.30;99.90
4056;DHT22;2043;52.184;8.690;2023-02-01T01:59:38;4.30;99.90
4056;DHT22;2043;52.184;8.690;2023-02-01T02:04:34;4.30;99.90
4056;DHT22;2043;52.184;8.690;2023-02-01T02:07:06;4.30;99.90
4056;DHT22;2043;52.184;8.690;2023-02-01T02:12:01;4.20;99.90
4056;DHT22;2043;52.184;8.690;2023-02-01T02:14:28;4.30;99.90
4056;DHT22;2043;52.184;8.690;2023-02-01T02:20:02;4.30;99.90
4056;DHT22;2043;52.184;8.690;2023-02-01T02:32:51;4.40;99.90
4056;DHT22;2043;52.184;8.690;2023-02-01T02:42:41;4.50;99.90
4056;DHT22;2043;52.184;8.690;2023-02-01T02:45:48;4.50;99.90
4056;DHT22;2043;52.184;8.690;2023-02-01T02:48:42;4.60;99.90
4056;DHT22;2043;52.184;8.690;2023-02-01T02:51:35;4.60;99.90
4056;DHT22;2043;52.184;8.690;2023-02-01T02:54:32;4.60;99.90
4056;DHT22;2043;52.184;8.690;2023-02-01T02:57:36;4.60;99.90
4056;DHT22;2043;52.184;8.690;2023-02-01T03:00:27;4.60;99.90
4056;DHT22;2043;52.184;8.690;2023-02-01T03:03:13;4.60;99.90
4056;DHT22;2043;52.184;8.690;2023-02-01T03:05:58;4.60;99.90
4056;DHT22;2043;52.184;8.690;2023-02-01T03:08:27;4.70;99.90
4056;DHT22;2043;52.184;8.690;2023-02-01T03:11:09;4.70;99.90
4056;DHT22;2043;52.184;8.690;2023-02-01T03:16:35;4.70;99.90
4056;DHT22;2043;52.184;8.690;2023-02-01T03:19:14;4.80;99.90
4056;DHT22;2043;52.184;8.690;2023-02-01T03:21:50;4.80;99.90
4056;DHT22;2043;52.184;8.690;2023-02-01T03:24:34;4.80;99.90
4056;DHT22;2043;52.184;8.690;2023-02-01T03:27:13;4.90;99.90
4056;DHT22;2043;52.184;8.690;2023-02-01T03:29:45;4.90;99.90
4056;DHT22;2043;52.184;8.690;2023-02-01T03:32:14;4.90;99.90
4056;DHT22;2043;52.184;8.690;2023-02-01T03:34:42;4.80;99.90
4056;DHT22;2043;52.184;8.690;2023-02-01T03:37:16;4.80;99.90
4056;DHT22;2043;52.184;8.690;2023-02-01T03:42:42;4.90;99.90
4056;DHT22;2043;52.184;8.690;2023-02-01T03:45:11;4.90;99.90
4056;DHT22;2043;52.184;8.690;2023-02-01T03:47:42;4.90;99.90
4056;DHT22;2043;52.184;8.690;2023-02-01T03:50:12;4.90;99.90
4056;DHT22;2043;52.184;8.690;2023-02-01T03:52:51;4.90;99.90
4056;DHT22;2043;52.184;8.690;2023-02-01T03:55:21;5.00;99.90
4056;DHT22;2043;52.184;8.690;2023-02-01T03:58:15;4.90;99.90
4056;DHT22;2043;52.184;8.690;2023-02-01T04:00:59;5.00;99.90
4056;DHT22;2043;52.184;8.690;2023-02-01T04:03:26;5.00;99.90
4056;DHT22;2043;52.184;8.690;2023-02-01T04:05:54;5.00;99.90
4056;DHT22;2043;52.184;8.690;2023-02-01T04:08:21;5.00;99.90
4056;DHT22;2043;52.184;8.690;2023-02-01T04:10:48;5.00;99.90
4056;DHT22;2043;52.184;8.690;2023-02-01T04:13:15;5.00;99.90
4056;DHT22;2043;52.184;8.690;2023-02-01T04:15:42;5.00;99.90
4056;DHT22;2043;52.184;8.690;2023-02-01T04:18:09;5.00;99.90
4056;DHT22;2043;52.184;8.690;2023-02-01T04:20:36;5.00;99.90
4056;DHT22;2043;52.184;8.690;2023-02-01T04:23:03;5.00;99.90
4056;DHT22;2043;52.184;8.690;2023-02-01T04:25:30;5.10;99.90
4056;DHT22;2043;52.184;8.690;2023-02-01T04:27:56;5.10;99.90
4056;DHT22;2043;52.184;8.690;2023-02-01T04:30:23;5.10;99.90
4056;DHT22;2043;52.184;8.690;2023-02-01T04:32:50;5.00;99.90
4056;DHT22;2043;52.184;8.690;2023-02-01T04:35:17;5.10;99.90
4056;DHT22;2043;52.184;8.690;2023-02-01T04:37:44;5.10;99.90
4056;DHT22;2043;52.184;8.690;2023-02-01T04:40:11;5.10;99.90
4056;DHT22;2043;52.184;8.690;2023-02-01T04:42:38;5.00;99.90
4056;DHT22;2043;52.184;8.690;2023-02-01T04:45:05;5.00;99.90
4056;DHT22;2043;52.184;8.690;2023-02-01T04:47:32;5.00;99.90
4056;DHT22;2043;52.184;8.690;2023-02-01T04:49:59;4.90;99.90
4056;DHT22;2043;52.184;8.690;2023-02-01T04:52:25;4.90;99.90
4056;DHT22;2043;52.184;8.690;2023-02-01T04:54:53;4.90;99.90
4056;DHT22;2043;52.184;8.690;2023-02-01T04:57:25;4.90;99.90
4056;DHT22;2043;52.184;8.690;2023-02-01T04:59:52;4.90;99.90
4056;DHT22;2043;52.184;8.690;2023-02-01T05:02:18;4.90;99.90
4056;DHT22;2043;52.184;8.690;2023-02-01T05:04:45;4.90;99.90
4056;DHT22;2043;52.184;8.690;2023-02-01T05:07:12;4.90;99.90
4056;DHT22;2043;52.184;8.690;2023-02-01T05:09:39;4.90;99.90
4056;DHT22;2043;52.184;8.690;2023-02-01T05:12:06;4.90;99.90
4056;DHT22;2043;52.184;8.690;2023-02-01T05:14:51;4.90;99.90
4056;DHT22;2043;52.184;8.690;2023-02-01T05:17:18;4.80;99.90
4056;DHT22;2043;52.184;8.690;2023-02-01T05:19:44;4.80;99.90
4056;DHT22;2043;52.184;8.690;2023-02-01T05:22:11;4.80;99.90
4056;DHT22;2043;52.184;8.690;2023-02-01T05:24:38;4.80;99.90
4056;DHT22;2043;52.184;8.690;2023-02-01T05:27:05;4.80;99.90
4056;DHT22;2043;52.184;8.690;2023-02-01T05:29:31;4.80;99.90
4056;DHT22;2043;52.184;8.690;2023-02-01T05:31:58;4.80;99.90
4056;DHT22;2043;52.184;8.690;2023-02-01T05:34:40;4.80;99.90
4056;DHT22;2043;52.184;8.690;2023-02-01T05:37:07;4.80;99.90
4056;DHT22;2043;52.184;8.690;2023-02-01T05:39:34;4.80;99.90
4056;DHT22;2043;52.184;8.690;2023-02-01T05:42:01;4.80;99.90
4056;DHT22;2043;52.184;8.690;2023-02-01T05:44:27;4.80;99.90
4056;DHT22;2043;52.184;8.690;2023-02-01T05:46:54;4.80;99.90
4056;DHT22;2043;52.184;8.690;2023-02-01T05:49:21;4.70;99.90
4056;DHT22;2043;52.184;8.690;2023-02-01T05:51:48;4.70;99.90
4056;DHT22;2043;52.184;8.690;2023-02-01T05:56:42;4.70;99.90
4056;DHT22;2043;52.184;8.690;2023-02-01T05:59:09;4.60;99.90
4056;DHT22;2043;52.184;8.690;2023-02-01T06:01:36;4.60;99.90
4056;DHT22;2043;52.184;8.690;2023-02-01T06:06:30;4.60;99.90
4056;DHT22;2043;52.184;8.690;2023-02-01T06:08:57;4.60;99.90
4056;DHT22;2043;52.184;8.690;2023-02-01T06:13:58;4.70;99.90
4056;DHT22;2043;52.184;8.690;2023-02-01T06:16:26;4.70;99.90
4056;DHT22;2043;52.184;8.690;2023-02-01T06:18:53;4.80;99.90
4056;DHT22;2043;52.184;8.690;2023-02-01T06:21:20;4.80;99.90
4056;DHT22;2043;52.184;8.690;2023-02-01T06:23:53;4.80;99.90
4056;DHT22;2043;52.184;8.690;2023-02-01T06:26:21;4.90;99.90
4056;DHT22;2043;52.184;8.690;2023-02-01T06:31:15;4.90;99.90
4056;DHT22;2043;52.184;8.690;2023-02-01T06:33:42;4.90;99.90
4056;DHT22;2043;52.184;8.690;2023-02-01T06:36:10;4.90;99.90
4056;DHT22;2043;52.184;8.690;2023-02-01T06:38:39;4.90;99.90
4056;DHT22;2043;52.184;8.690;2023-02-01T06:41:06;4.90;99.90
4056;DHT22;2043;52.184;8.690;2023-02-01T06:43:33;4.90;99.90
4056;DHT22;2043;52.184;8.690;2023-02-01T06:46:03;4.90;99.90
4056;DHT22;2043;52.184;8.690;2023-02-01T06:48:30;4.90;99.90
4056;DHT22;2043;52.184;8.690;2023-02-01T06:50:57;4.90;99.90
4056;DHT22;2043;52.184;8.690;2023-02-01T06:53:24;5.00;99.90
4056;DHT22;2043;52.184;8.690;2023-02-01T06:55:53;5.00;99.90
4056;DHT22;2043;52.184;8.690;2023-02-01T06:58:20;5.10;99.90
4056;DHT22;2043;52.184;8.690;2023-02-01T07:00:47;5.00;99.90
4056;DHT22;2043;52.184;8.690;2023-02-01T07:03:15;5.00;99.90
4056;DHT22;2043;52.184;8.690;2023-02-01T07:05:41;5.10;99.90
4056;DHT22;2043;52.184;8.690;2023-02-01T07:08:08;5.10;99.90
4056;DHT22;2043;52.184;8.690;2023-02-01T07:10:35;5.10;99.90
4056;DHT22;2043;52.184;8.690;2023-02-01T07:13:02;5.00;99.90
4056;DHT22;2043;52.184;8.690;2023-02-01T07:15:28;5.10;99.90
4056;DHT22;2043;52.184;8.690;2023-02-01T07:17:55;5.10;99.90
4056;DHT22;2043;52.184;8.690;2023-02-01T07:20:23;5.20;99.90
4056;DHT22;2043;52.184;8.690;2023-02-01T07:22:55;5.10;99.90
4056;DHT22;2043;52.184;8.690;2023-02-01T07:25:23;5.20;99.90
4056;DHT22;2043;52.184;8.690;2023-02-01T07:27:49;5.20;99.90
4056;DHT22;2043;52.184;8.690;2023-02-01T07:30:16;5.20;99.90
4056;DHT22;2043;52.184;8.690;2023-02-01T07:32:43;5.20;99.90
4056;DHT22;2043;52.184;8.690;2023-02-01T07:35:10;5.30;99.90
4056;DHT22;2043;52.184;8.690;2023-02-01T07:37:37;5.30;99.90
4056;DHT22;2043;52.184;8.690;2023-02-01T07:40:04;5.30;99.90
4056;DHT22;2043;52.184;8.690;2023-02-01T07:42:31;5.30;99.90
4056;DHT22;2043;52.184;8.690;2023-02-01T07:44:58;5.30;99.90
4056;DHT22;2043;52.184;8.690;2023-02-01T07:47:40;5.30;99.90
4056;DHT22;2043;52.184;8.690;2023-02-01T07:50:07;5.40;99.90
4056;DHT22;2043;52.184;8.690;2023-02-01T07:52:34;5.30;99.90
4056;DHT22;2043;52.184;8.690;2023-02-01T07:55:01;5.40;99.90
4056;DHT22;2043;52.184;8.690;2023-02-01T07:57:28;5.40;99.90
4056;DHT22;2043;52.184;8.690;2023-02-01T07:59:54;5.40;99.90
4056;DHT22;2043;52.184;8.690;2023-02-01T08:02:40;5.50;99.90
4056;DHT22;2043;52.184;8.690;2023-02-01T08:05:07;5.40;99.90
4056;DHT22;2043;52.184;8.690;2023-02-01T08:07:34;5.40;99.90
4056;DHT22;2043;52.184;8.690;2023-02-01T08:10:01;5.50;99.90
4056;DHT22;2043;52.184;8.690;2023-02-01T08:12:27;5.50;99.90
4056;DHT22;2043;52.184;8.690;2023-02-01T08:14:54;5.40;99.90
4056;DHT22;2043;52.184;8.690;2023-02-01T08:17:22;5.30;99.90
4056;DHT22;2043;52.184;8.690;2023-02-01T08:19:49;5.20;99.90
4056;DHT22;2043;52.184;8.690;2023-02-01T08:22:16;5.20;99.90
4056;DHT22;2043;52.184;8.690;2023-02-01T08:24:42;5.20;99.90
4056;DHT22;2043;52.184;8.690;2023-02-01T08:27:10;5.20;99.90
4056;DHT22;2043;52.184;8.690;2023-02-01T08:29:36;5.20;99.90
4056;DHT22;2043;52.184;8.690;2023-02-01T08:32:03;5.30;99.90
4056;DHT22;2043;52.184;8.690;2023-02-01T08:34:30;5.30;99.90
4056;DHT22;2043;52.184;8.690;2023-02-01T08:37:00;5.40;99.90
4056;DHT22;2043;52.184;8.690;2023-02-01T08:39:27;5.50;99.90
4056;DHT22;2043;52.184;8.690;2023-02-01T08:41:53;5.50;99.90
4056;DHT22;2043;52.184;8.690;2023-02-01T08:44:39;5.60;99.90
4056;DHT22;2043;52.184;8.690;2023-02-01T08:47:05;5.70;99.90
4056;DHT22;2043;52.184;8.690;2023-02-01T08:51:59;5.70;99.90
4056;DHT22;2043;52.184;8.690;2023-02-01T08:54:32;5.80;99.90
4056;DHT22;2043;52.184;8.690;2023-02-01T08:56:59;5.70;99.90
4056;DHT22;2043;52.184;8.690;2023-02-01T08:59:26;5.70;99.90
4056;DHT22;2043;52.184;8.690;2023-02-01T09:01:55;5.80;99.90
4056;DHT22;2043;52.184;8.690;2023-02-01T09:06:49;5.80;99.90
4056;DHT22;2043;52.184;8.690;2023-02-01T09:09:16;5.80;99.90
4056;DHT22;2043;52.184;8.690;2023-02-01T09:11:43;5.80;99.90
4056;DHT22;2043;52.184;8.690;2023-02-01T09:14:10;5.90;99.90
4056;DHT22;2043;52.184;8.690;2023-02-01T09:16:36;5.90;99.90
4056;DHT22;2043;52.184;8.690;2023-02-01T09:19:03;5.90;99.90
4056;DHT22;2043;52.184;8.690;2023-02-01T09:21:50;6.10;99.90
4056;DHT22;2043;52.184;8.690;2023-02-01T09:24:17;6.20;99.90
4056;DHT22;2043;52.184;8.690;2023-02-01T09:26:45;6.20;99.90
4056;DHT22;2043;52.184;8.690;2023-02-01T09:29:12;6.30;99.90
4056;DHT22;2043;52.184;8.690;2023-02-01T09:31:39;6.60;99.90
4056;DHT22;2043;52.184;8.690;2023-02-01T09:34:15;6.70;99.80
4056;DHT22;2043;52.184;8.690;2023-02-01T09:36:42;6.50;99.90
4056;DHT22;2043;52.184;8.690;2023-02-01T09:39:09;6.40;99.90
4056;DHT22;2043;52.184;8.690;2023-02-01T09:44:23;6.30;99.90
4056;DHT22;2043;52.184;8.690;2023-02-01T09:47:19;6.30;99.90
4056;DHT22;2043;52.184;8.690;2023-02-01T09:50:16;6.20;99.90
4056;DHT22;2043;52.184;8.690;2023-02-01T09:53:36;6.30;99.90
4056;DHT22;2043;52.184;8.690;2023-02-01T09:56:06;6.30;99.90
4056;DHT22;2043;52.184;8.690;2023-02-01T09:58:37;6.40;99.70
4056;DHT22;2043;52.184;8.690;2023-02-01T10:01:31;6.40;99.90
4056;DHT22;2043;52.184;8.690;2023-02-01T10:04:02;6.40;99.80
4056;DHT22;2043;52.184;8.690;2023-02-01T10:20:30;6.30;99.70
4056;DHT22;2043;52.184;8.690;2023-02-01T10:23:07;6.30;99.30
4056;DHT22;2043;52.184;8.690;2023-02-01T10:26:23;6.30;99.60
4056;DHT22;2043;52.184;8.690;2023-02-01T10:28:52;6.30;99.60
4056;DHT22;2043;52.184;8.690;2023-02-01T10:31:24;6.30;99.70
4056;DHT22;2043;52.184;8.690;2023-02-01T10:34:00;6.20;99.50
4056;DHT22;2043;52.184;8.690;2023-02-01T10:37:01;6.30;99.60
4056;DHT22;2043;52.184;8.690;2023-02-01T10:39:28;6.20;99.60
4056;DHT22;2043;52.184;8.690;2023-02-01T10:41:55;6.30;99.60
4056;DHT22;2043;52.184;8.690;2023-02-01T10:44:27;6.30;99.60
4056;DHT22;2043;52.184;8.690;2023-02-01T10:55:36;6.30;99.40
4056;DHT22;2043;52.184;8.690;2023-02-01T11:00:51;6.30;99.60
4056;DHT22;2043;52.184;8.690;2023-02-01T11:08:53;6.30;99.60
4056;DHT22;2043;52.184;8.690;2023-02-01T11:11:21;6.30;99.40
4056;DHT22;2043;52.184;8.690;2023-02-01T11:13:59;6.30;99.50
4056;DHT22;2043;52.184;8.690;2023-02-01T11:16:33;6.30;98.90
4056;DHT22;2043;52.184;8.690;2023-02-01T11:19:01;6.40;99.10
4056;DHT22;2043;52.184;8.690;2023-02-01T11:21:27;6.40;99.50
4056;DHT22;2043;52.184;8.690;2023-02-01T11:23:55;6.40;99.50
4056;DHT22;2043;52.184;8.690;2023-02-01T11:26:26;6.40;99.20
4056;DHT22;2043;52.184;8.690;2023-02-01T11:28:59;6.40;99.50
4056;DHT22;2043;52.184;8.690;2023-02-01T11:31:28;6.40;99.80
4056;DHT22;2043;52.184;8.690;2023-02-01T11:34:00;6.40;99.90
4056;DHT22;2043;52.184;8.690;2023-02-01T11:36:32;6.40;99.90
4056;DHT22;2043;52.184;8.690;2023-02-01T11:44:36;6.40;99.50
4056;DHT22;2043;52.184;8.690;2023-02-01T11:47:21;6.40;99.40
4056;DHT22;2043;52.184;8.690;2023-02-01T11:49:51;6.40;99.50
4056;DHT22;2043;52.184;8.690;2023-02-01T11:58:12;6.30;99.90
4056;DHT22;2043;52.184;8.690;2023-02-01T12:12:12;5.90;99.90
4056;DHT22;2043;52.184;8.690;2023-02-01T12:17:16;5.80;99.90
4056;DHT22;2043;52.184;8.690;2023-02-01T12:28:11;5.60;99.90
4056;DHT22;2043;52.184;8.690;2023-02-01T12:30:46;5.60;99.90
4056;DHT22;2043;52.184;8.690;2023-02-01T12:42:03;5.40;99.90
4056;DHT22;2043;52.184;8.690;2023-02-01T12:44:39;5.30;99.90
4056;DHT22;2043;52.184;8.690;2023-02-01T12:49:46;5.30;99.90
4056;DHT22;2043;52.184;8.690;2023-02-01T12:52:38;5.30;99.90
4056;DHT22;2043;52.184;8.690;2023-02-01T12:55:26;5.30;99.90
4056;DHT22;2043;52.184;8.690;2023-02-01T12:58:21;5.30;99.90
4056;DHT22;2043;52.184;8.690;2023-02-01T13:00:59;5.30;99.90
4056;DHT22;2043;52.184;8.690;2023-02-01T13:06:23;5.30;99.90
4056;DHT22;2043;52.184;8.690;2023-02-01T13:11:30;5.30;99.90
4056;DHT22;2043;52.184;8.690;2023-02-01T13:16:57;5.30;99.90
4056;DHT22;2043;52.184;8.690;2023-02-01T13:19:49;5.30;99.90
4056;DHT22;2043;52.184;8.690;2023-02-01T13:22:25;5.30;99.90
4056;DHT22;2043;52.184;8.690;2023-02-01T13:25:02;5.40;99.90
4056;DHT22;2043;52.184;8.690;2023-02-01T13:27:31;5.40;99.90
4056;DHT22;2043;52.184;8.690;2023-02-01T13:30:07;5.50;99.90
4056;DHT22;2043;52.184;8.690;2023-02-01T13:41:31;5.50;99.90
4056;DHT22;2043;52.184;8.690;2023-02-01T13:44:11;5.40;99.90
4056;DHT22;2043;52.184;8.690;2023-02-01T13:46:41;5.40;99.90
4056;DHT22;2043;52.184;8.690;2023-02-01T13:49:19;5.40;99.90
4056;DHT22;2043;52.184;8.690;2023-02-01T13:51:49;5.50;99.90
4056;DHT22;2043;52.184;8.690;2023-02-01T13:56:53;5.50;99.90
4056;DHT22;2043;52.184;8.690;2023-02-01T14:21:27;5.70;99.90
4056;DHT22;2043;52.184;8.690;2023-02-01T14:29:24;5.90;99.90
4056;DHT22;2043;52.184;8.690;2023-02-01T14:34:53;5.90;99.90
4056;DHT22;2043;52.184;8.690;2023-02-01T14:37:35;6.00;99.90
4056;DHT22;2043;52.184;8.690;2023-02-01T14:55:54;6.10;99.90
4056;DHT22;2043;52.184;8.690;2023-02-01T15:01:34;6.10;99.90
4056;DHT22;2043;52.184;8.690;2023-02-01T15:06:47;6.10;99.90
4056;DHT22;2043;52.184;8.690;2023-02-01T15:09:58;6.10;99.90
4056;DHT22;2043;52.184;8.690;2023-02-01T15:12:22;6.10;99.90
4056;DHT22;2043;52.184;8.690;2023-02-01T15:15:18;6.10;99.90
4056;DHT22;2043;52.184;8.690;2023-02-01T15:18:03;6.20;99.90
4056;DHT22;2043;52.184;8.690;2023-02-01T15:20:32;6.20;99.90
4056;DHT22;2043;52.184;8.690;2023-02-01T15:23:15;6.20;99.90
4056;DHT22;2043;52.184;8.690;2023-02-01T15:25:45;6.20;99.90
4056;DHT22;2043;52.184;8.690;2023-02-01T15:28:14;6.20;99.90
4056;DHT22;2043;52.184;8.690;2023-02-01T15:30:58;6.20;99.90
4056;DHT22;2043;52.184;8.690;2023-02-01T15:33:26;6.10;99.90
4056;DHT22;2043;52.184;8.690;2023-02-01T15:35:56;6.00;99.90
4056;DHT22;2043;52.184;8.690;2023-02-01T15:38:40;5.90;99.90
4056;DHT22;2043;52.184;8.690;2023-02-01T15:41:20;5.90;99.90
4056;DHT22;2043;52.184;8.690;2023-02-01T15:46:41;5.90;99.90
4056;DHT22;2043;52.184;8.690;2023-02-01T15:49:19;6.00;99.90
4056;DHT22;2043;52.184;8.690;2023-02-01T15:51:47;6.00;99.90
4056;DHT22;2043;52.184;8.690;2023-02-01T15:54:20;6.00;99.90
4056;DHT22;2043;52.184;8.690;2023-02-01T15:56:51;6.00;99.90
4056;DHT22;2043;52.184;8.690;2023-02-01T16:02:36;5.90;99.90
4056;DHT22;2043;52.184;8.690;2023-02-01T16:05:37;5.90;99.90
4056;DHT22;2043;52.184;8.690;2023-02-01T16:08:10;5.80;99.90
4056;DHT22;2043;52.184;8.690;2023-02-01T16:10:41;5.80;99.90
4056;DHT22;2043;52.184;8.690;2023-02-01T16:13:08;5.80;99.90
4056;DHT22;2043;52.184;8.690;2023-02-01T16:15:35;5.70;99.90
4056;DHT22;2043;52.184;8.690;2023-02-01T16:18:02;5.70;99.90
4056;DHT22;2043;52.184;8.690;2023-02-01T16:20:29;5.80;99.90
4056;DHT22;2043;52.184;8.690;2023-02-01T16:22:56;5.80;99.90
4056;DHT22;2043;52.184;8.690;2023-02-01T16:25:23;5.80;99.90
4056;DHT22;2043;52.184;8.690;2023-02-01T16:27:50;5.80;99.90
4056;DHT22;2043;52.184;8.690;2023-02-01T16:32:55;5.90;99.90
4056;DHT22;2043;52.184;8.690;2023-02-01T16:35:27;5.90;99.90
4056;DHT22;2043;52.184;8.690;2023-02-01T16:37:56;5.80;99.90
4056;DHT22;2043;52.184;8.690;2023-02-01T16:40:23;5.80;99.90
4056;DHT22;2043;52.184;8.690;2023-02-01T16:42:51;5.80;99.90
4056;DHT22;2043;52.184;8.690;2023-02-01T16:45:19;5.80;99.90
4056;DHT22;2043;52.184;8.690;2023-02-01T16:47:53;5.80;99.90
4056;DHT22;2043;52.184;8.690;2023-02-01T16:50:24;5.80;99.90
4056;DHT22;2043;52.184;8.690;2023-02-01T16:52:52;5.80;99.90
4056;DHT22;2043;52.184;8.690;2023-02-01T16:55:21;5.80;99.90
4056;DHT22;2043;52.184;8.690;2023-02-01T16:57:49;5.80;99.80
4056;DHT22;2043;52.184;8.690;2023-02-01T17:00:16;5.70;99.90
4056;DHT22;2043;52.184;8.690;2023-02-01T17:02:51;5.70;99.90
4056;DHT22;2043;52.184;8.690;2023-02-01T17:05:18;5.60;99.90
4056;DHT22;2043;52.184;8.690;2023-02-01T17:07:45;5.60;99.90
4056;DHT22;2043;52.184;8.690;2023-02-01T17:10:22;5.60;99.90
4056;DHT22;2043;52.184;8.690;2023-02-01T17:12:59;5.50;99.90
4056;DHT22;2043;52.184;8.690;2023-02-01T17:15:32;5.50;99.90
4056;DHT22;2043;52.184;8.690;2023-02-01T17:18:01;5.50;99.90
4056;DHT22;2043;52.184;8.690;2023-02-01T17:20:30;5.50;99.90
4056;DHT22;2043;52.184;8.690;2023-02-01T17:22:58;5.50;99.90
4056;DHT22;2043;52.184;8.690;2023-02-01T17:25:26;5.60;99.90
4056;DHT22;2043;52.184;8.690;2023-02-01T17:27:54;5.60;99.90
4056;DHT22;2043;52.184;8.690;2023-02-01T17:30:21;5.60;99.90
4056;DHT22;2043;52.184;8.690;2023-02-01T17:32:47;5.60;99.90
4056;DHT22;2043;52.184;8.690;2023-02-01T17:35:22;5.60;99.90
4056;DHT22;2043;52.184;8.690;2023-02-01T17:37:50;5.60;99.90
4056;DHT22;2043;52.184;8.690;2023-02-01T17:40:17;5.50;99.90
4056;DHT22;2043;52.184;8.690;2023-02-01T17:42:44;5.60;99.90
4056;DHT22;2043;52.184;8.690;2023-02-01T17:45:23;5.60;99.90
4056;DHT22;2043;52.184;8.690;2023-02-01T17:47:52;5.60;99.90
4056;DHT22;2043;52.184;8.690;2023-02-01T17:50:19;5.60;99.90
4056;DHT22;2043;52.184;8.690;2023-02-01T17:52:46;5.50;99.90
4056;DHT22;2043;52.184;8.690;2023-02-01T17:55:21;5.50;99.90
4056;DHT22;2043;52.184;8.690;2023-02-01T17:57:50;5.50;99.90
4056;DHT22;2043;52.184;8.690;2023-02-01T18:00:18;5.50;99.90
4056;DHT22;2043;52.184;8.690;2023-02-01T18:02:45;5.50;99.90
4056;DHT22;2043;52.184;8.690;2023-02-01T18:07:48;5.60;99.90
4056;DHT22;2043;52.184;8.690;2023-02-01T18:10:15;5.60;99.90
4056;DHT22;2043;52.184;8.690;2023-02-01T18:12:43;5.60;99.90
4056;DHT22;2043;52.184;8.690;2023-02-01T18:15:14;5.60;99.90
4056;DHT22;2043;52.184;8.690;2023-02-01T18:17:41;5.60;99.90
4056;DHT22;2043;52.184;8.690;2023-02-01T18:20:13;5.60;99.90
4056;DHT22;2043;52.184;8.690;2023-02-01T18:22:42;5.60;99.90
4056;DHT22;2043;52.184;8.690;2023-02-01T18:25:21;5.50;99.90
4056;DHT22;2043;52.184;8.690;2023-02-01T18:27:51;5.50;99.90
4056;DHT22;2043;52.184;8.690;2023-02-01T18:30:20;5.50;99.90
4056;DHT22;2043;52.184;8.690;2023-02-01T18:32:47;5.40;99.90
4056;DHT22;2043;52.184;8.690;2023-02-01T18:35:27;5.40;99.90
4056;DHT22;2043;52.184;8.690;2023-02-01T18:37:54;5.40;99.90
4056;DHT22;2043;52.184;8.690;2023-02-01T18:40:33;5.50;99.90
4056;DHT22;2043;52.184;8.690;2023-02-01T18:43:01;5.50;99.90
4056;DHT22;2043;52.184;8.690;2023-02-01T18:45:41;5.40;99.90
4056;DHT22;2043;52.184;8.690;2023-02-01T18:48:09;5.50;99.90
4056;DHT22;2043;52.184;8.690;2023-02-01T18:50:38;5.50;99.90
4056;DHT22;2043;52.184;8.690;2023-02-01T18:53:09;5.50;99.90
4056;DHT22;2043;52.184;8.690;2023-02-01T18:55:37;5.50;99.90
4056;DHT22;2043;52.184;8.690;2023-02-01T18:58:04;5.50;99.90
4056;DHT22;2043;52.184;8.690;2023-02-01T19:00:33;5.50;99.90
4056;DHT22;2043;52.184;8.690;2023-02-01T19:03:01;5.50;99.90
4056;DHT22;2043;52.184;8.690;2023-02-01T19:05:29;5.50;99.90
4056;DHT22;2043;52.184;8.690;2023-02-01T19:07:57;5.50;99.90
4056;DHT22;2043;52.184;8.690;2023-02-01T19:10:25;5.50;99.90
4056;DHT22;2043;52.184;8.690;2023-02-01T19:12:53;5.60;99.90
4056;DHT22;2043;52.184;8.690;2023-02-01T19:15:24;5.60;99.90
4056;DHT22;2043;52.184;8.690;2023-02-01T19:17:53;5.60;99.90
4056;DHT22;2043;52.184;8.690;2023-02-01T19:20:23;5.70;99.90
4056;DHT22;2043;52.184;8.690;2023-02-01T19:22:50;5.70;99.90
4056;DHT22;2043;52.184;8.690;2023-02-01T19:25:22;5.70;99.90
4056;DHT22;2043;52.184;8.690;2023-02-01T19:27:51;5.70;99.90
4056;DHT22;2043;52.184;8.690;2023-02-01T19:30:19;5.70;99.90
4056;DHT22;2043;52.184;8.690;2023-02-01T19:32:46;5.70;99.90
4056;DHT22;2043;52.184;8.690;2023-02-01T19:35:15;5.70;99.90
4056;DHT22;2043;52.184;8.690;2023-02-01T19:37:46;5.70;99.90
4056;DHT22;2043;52.184;8.690;2023-02-01T19:40:18;5.70;99.90
4056;DHT22;2043;52.184;8.690;2023-02-01T19:42:46;5.70;99.90
4056;DHT22;2043;52.184;8.690;2023-02-01T19:45:14;5.70;99.90
4056;DHT22;2043;52.184;8.690;2023-02-01T19:47:41;5.60;99.90
4056;DHT22;2043;52.184;8.690;2023-02-01T19:50:09;5.60;99.90
4056;DHT22;2043;52.184;8.690;2023-02-01T19:52:36;5.60;99.90
4056;DHT22;2043;52.184;8.690;2023-02-01T19:55:03;5.60;99.90
4056;DHT22;2043;52.184;8.690;2023-02-01T19:57:30;5.60;99.90
4056;DHT22;2043;52.184;8.690;2023-02-01T19:59:57;5.60;99.90
4056;DHT22;2043;52.184;8.690;2023-02-01T20:02:24;5.70;99.90
4056;DHT22;2043;52.184;8.690;2023-02-01T20:04:54;5.70;99.90
4056;DHT22;2043;52.184;8.690;2023-02-01T20:07:21;5.70;99.90
4056;DHT22;2043;52.184;8.690;2023-02-01T20:09:48;5.70;99.90
4056;DHT22;2043;52.184;8.690;2023-02-01T20:12:15;5.70;99.90